< < Back
Terminal Aerodrome Forecast


Current Version              Previous Versions:   1  2  3  4  5  6  7  8  9  

Terminal Aerodrome Forecast

034
FTAK31 PAJN 250043 AAA
TAFAGS
TAF AMD
PAGS 250043Z 2501/2524 VRB04KT 2SM -DZ BR OVC005
      TEMPO 2501/2505 4SM -DZ BR BKN005 BKN009 OVC015
     FM250900 00000KT 2SM -RA BR OVC004
     FM251900 20005KT P6SM -RA SCT004 OVC015
      AMD LTD TO CLD VIS AND WIND=

Latest METAR

238
SAUS70 KWBC 250200 RRD
MTRAGS
METAR KAGS 250153Z 13005KT 10SM BKN065 24/22 A3019 RMK AO2 SLP220
T02440222


USA.gov is the U.S. government's official web portal to all federal, state and local government web resources and services.